Skip to main content.

Nearby METAR Reports

 

KJYR - York, Nebraska, USA
Distance from station: NW 27mi, 43km
Updated: Sun, 21-Jul-2019 4:15am CDT
Nearby thunderstorm, Rain, Overcast
Nearby thunderstorm, Rain, Overcast
 Wind from E
Wind: E 12 mph , 19 km/h, Gust: 18 mph , 30 km/h
Temperature: 68°F , 20°C
Dew Point: 68°F , 20°C
Humidity: 100%
Barometer: 29.91 inHg , 1012.9 hPa
Summary: Nearby thunderstorm, Rain
Clouds: Overcast
Visibility: 4 miles , 6 km
Cloud details: Mostly Cloudy 300 ft
Mostly Cloudy 800 ft
Overcast 8000 ft
2019/07/21 09:15 KJYR 210915Z AUTO 08010G16KT 4SM VCTS RA BKN003 BKN008 OVC080 20/20 A2991 RMK AO2 P0008
KLNK - Lincoln, Nebraska, USA
Distance from station: ENE 27mi, 44km
Updated: Sun, 21-Jul-2019 4:26am CDT
Heavy thunderstorm, Rain, Mist, Overcast
Heavy thunderstorm, Rain, Mist, Overcast
 Wind from NE
Wind: NE 18 mph , 30 km/h, Gust: 23 mph , 37 km/h
Temperature: 70°F , 21°C
Dew Point: 64°F , 18°C
Humidity: 83%
Barometer: 29.93 inHg , 1013.5 hPa
Summary: Heavy thunderstorm, Rain, Mist
Clouds: Overcast
Visibility: 2 miles , 3 km
Cloud details: Overcast 3000 ft
2019/07/21 09:26 KLNK 210926Z AUTO 05016G20KT 2SM R36/6000VP6000FT +TSRA BR OVC030 21/18 A2993 RMK AO2 WSHFT 0841 LTG DSNT ALQDS P0086 T02060183
 
KBIE - Beatrice Municip, Nebraska, USA
Distance from station: SE 36mi, 58km
Updated: Sun, 21-Jul-2019 4:15am CDT
Overcast
Overcast
 Wind from ESE
Wind: ESE 22 mph , 35 km/h, Gust: 32 mph , 52 km/h
Temperature: 79°F , 26°C
Dew Point: 72°F , 22°C
Humidity: 79%
Barometer: 29.90 inHg , 1012.5 hPa
Clouds: Overcast
Visibility: 10 miles , 16 km
Cloud details: Overcast 1400 ft
2019/07/21 09:15 KBIE 210915Z AUTO 11019G28KT 10SM OVC014 26/22 A2990 RMK AO2 LTG DSNT NW THRU E T02550223
KHJH - Hebron Muni, Nebraska, USA
Distance from station: SSW 40mi, 64km
Updated: Sun, 21-Jul-2019 4:15am CDT
Mostly Cloudy
Mostly Cloudy
 Wind from ENE
Wind: ENE 10 mph , 17 km/h
Temperature: 73°F , 23°C
Dew Point: 68°F , 20°C
Humidity: 83%
Barometer: 29.89 inHg , 1012.2 hPa
Clouds: Mostly Cloudy
Visibility: 10 miles , 16 km
Cloud details: Mostly Cloudy 1700 ft
2019/07/21 09:15 KHJH 210915Z AUTO 06009KT 10SM BKN017 23/20 A2989 RMK AO2 LTG DSNT NW THRU NE T02290197
 
KAUH - Aurora, Nebraska, USA
Distance from station: WNW 44mi, 70km
Updated: Sun, 21-Jul-2019 4:15am CDT

 Wind from ENE
Wind: ENE 21 mph , 33 km/h, Gust: 26 mph , 43 km/h
Visibility: 10 miles , 16 km
2019/07/21 09:15 KAUH 210915Z AUTO 07018G23KT 10SM -VCTSRA OVC008 20/20 A2992 RMK AO2 LTG DSNT ALQS T01950195
KAHQ - Wahoo, Nebraska, USA
Distance from station: NE 51mi, 82km
Updated: Sun, 21-Jul-2019 4:15am CDT
Light rain, Overcast
Light rain, Overcast
 Wind from ENE
Wind: ENE 13 mph , 20 km/h
Temperature: 70°F , 21°C
Dew Point: 68°F , 20°C
Humidity: 94%
Barometer: 29.93 inHg , 1013.5 hPa
Summary: Light Rain
Clouds: Overcast
Visibility: 10 miles , 16 km
Cloud details: Overcast 1400 ft
2019/07/21 09:15 KAHQ 210915Z AUTO 07011KT 10SM -RA OVC014 21/20 A2993 RMK AO2 P0004 T02050197
 
KOLU - Columbus Muni, Nebraska, USA
Distance from station: N 55mi, 88km
Updated: Sun, 21-Jul-2019 4:15am CDT
Overcast
Overcast
 Wind from NE
Wind: NE 13 mph , 20 km/h
Temperature: 68°F , 20°C
Dew Point: 63°F , 17°C
Humidity: 83%
Barometer: 29.94 inHg , 1013.9 hPa
Clouds: Overcast
Visibility: 10 miles , 16 km
Cloud details: Partly Cloudy 1500 ft
Overcast 4800 ft
2019/07/21 09:15 KOLU 210915Z AUTO 05011KT 10SM SCT015 OVC048 20/17 A2994 RMK AO2 LTG DSNT SE-W
KGRI - Grand Island, Nebraska, USA
Distance from station: WNW 61mi, 99km
Updated: Sun, 21-Jul-2019 4:27am CDT
Thunderstorm rain, Mist, Overcast
Thunderstorm rain, Mist, Overcast
 Wind from WNW
Wind: WNW 13 mph , 20 km/h
Temperature: 66°F , 19°C
Dew Point: 64°F , 18°C
Humidity: 94%
Barometer: 29.97 inHg , 1014.9 hPa
Summary: Thunderstorm rain, Mist
Clouds: Overcast
Visibility: 3 miles , 5 km
Cloud details: Partly Cloudy 900 ft
Mostly Cloudy 1300 ft
Overcast 2500 ft
2019/07/21 09:27 KGRI 210927Z AUTO 29011KT 3SM TSRA BR SCT009 BKN013 OVC025 19/18 A2997 RMK AO2 WSHFT 0905 LTG DSNT ALQDS TSE02B03E20B21 PRESRR P0016 T01940178 $
 
KHSI - Hastings, Nebraska, USA
Distance from station: W 64mi, 103km
Updated: Sun, 21-Jul-2019 3:53am CDT
Overcast
Overcast
 Wind from ENE
Wind: ENE 14 mph , 22 km/h, Gust: 24 mph , 39 km/h
Temperature: 72°F , 22°C
Dew Point: 66°F , 19°C
Humidity: 83%
Barometer: 29.92 inHg , 1013.2 hPa
Clouds: Overcast
Visibility: 10 miles , 16 km
Cloud details: Overcast 900 ft
2019/07/21 08:53 KHSI 210853Z AUTO 06012G21KT 10SM OVC009 22/19 A2992 RMK AO2 LTG DSNT N AND NE SLP111 T02170194 56011
KFET - Fremont Muni Arp, Nebraska, USA
Distance from station: NNE 66mi, 106km
Updated: Sun, 21-Jul-2019 4:15am CDT
Nearby thunderstorm, Overcast
Nearby thunderstorm, Overcast
 Wind from NE
Wind: NE 12 mph , 19 km/h, Gust: 17 mph , 28 km/h
Temperature: 70°F , 21°C
Dew Point: 63°F , 17°C
Humidity: 78%
Barometer: 29.94 inHg , 1013.9 hPa
Summary: Nearby Thunderstorm
Clouds: Overcast
Visibility: 10 miles , 16 km
Cloud details: Overcast 4900 ft
2019/07/21 09:15 KFET 210915Z AUTO 05010G15KT 10SM VCTS OVC049 21/17 A2994 RMK AO2 LTG DSNT SE THRU W T02110170
 
KMLE - Omaha/Millard, Nebraska, USA
Distance from station: NE 69mi, 110km
Updated: Sun, 21-Jul-2019 4:15am CDT

 Wind from calm
Wind: Calm
Visibility: 10 miles , 16 km
2019/07/21 09:15 KMLE 210915Z AUTO 00000KT 10SM -VCTSRA BKN017 OVC023 22/20 A2993 RMK AO2 LTG DSNT ALQS T02210202
KPMV - Plattsmouth Muni, Nebraska, USA
Distance from station: ENE 71mi, 114km
Updated: Sun, 21-Jul-2019 4:35am CDT
Thunderstorm rain, Overcast
Thunderstorm rain, Overcast
 Wind from ENE
Wind: ENE 10 mph , 17 km/h
Temperature: 72°F , 22°C
Dew Point: 70°F , 21°C
Humidity: 94%
Barometer: 29.90 inHg , 1012.5 hPa
Summary: Thunderstorm Rain
Clouds: Overcast
Visibility: 5 miles , 8 km
Cloud details: Overcast 400 ft
2019/07/21 09:35 KPMV 210935Z AUTO 07009KT 5SM TSRA OVC004 22/21 A2990 RMK AO2 LTG DSNT ALQS P0021 T02150214
 
KAFK - Nebraska City, Nebraska, USA
Distance from station: E 72mi, 116km
Updated: Sun, 21-Jul-2019 4:35am CDT
Thunderstorm rain, Overcast
Thunderstorm rain, Overcast
 Wind from SSW
Wind: SSW 12 mph , 19 km/h
Temperature: 70°F , 21°C
Dew Point: 68°F , 20°C
Humidity: 94%
Barometer: 29.94 inHg , 1013.9 hPa
Summary: Thunderstorm Rain
Clouds: Overcast
Visibility: 5 miles , 8 km
Cloud details: Partly Cloudy 1000 ft
Mostly Cloudy 7500 ft
Overcast 10000 ft
2019/07/21 09:35 KAFK 210935Z AUTO 21010KT 5SM TSRA SCT010 BKN075 OVC100 21/20 A2994 RMK AO2 LTG DSNT ALQS P0011 T02050202
KOFF - Offutt Afb/Belle, Nebraska, USA
Distance from station: ENE 75mi, 121km
Updated: Sun, 21-Jul-2019 3:56am CDT
Light thunderstorm, Rain, Mostly cloudy
Light thunderstorm, Rain, Mostly cloudy
 Wind from ENE
Wind: ENE 6 mph , 9 km/h
Temperature: 72°F , 22°C
Dew Point: 70°F , 21°C
Humidity: 94%
Barometer: 29.97 inHg , 1014.9 hPa
Summary: Light thunderstorm, Rain
Clouds: Mostly Cloudy
Visibility: 5 miles , 8 km
Cloud details: Mostly Cloudy 2000 ft
2019/07/21 08:56 KOFF 210856Z 07005KT 5SM -TSRA BKN020 22/21 A2997 RMK AO2A SLP130 P0015 60004 RVRNO $
 
KBTA - Blair Muni, Nebraska, USA
Distance from station: NE 78mi, 125km
Updated: Sun, 21-Jul-2019 4:35am CDT
Nearby thunderstorm, Overcast
Nearby thunderstorm, Overcast
 Wind from ENE
Wind: ENE 7 mph , 11 km/h
Temperature: 68°F , 20°C
Dew Point: 64°F , 18°C
Humidity: 88%
Barometer: 29.95 inHg , 1014.2 hPa
Summary: Nearby Thunderstorm
Clouds: Overcast
Visibility: 10 miles , 16 km
Cloud details: Overcast 4900 ft
2019/07/21 09:35 KBTA 210935Z AUTO 06006KT 10SM VCTS OVC049 20/18 A2995 RMK AO2 LTG DSNT SE THRU SW T020
KCNK - Concordia, Kansas, USA
Distance from station: SSW 80mi, 129km
Updated: Sun, 21-Jul-2019 3:55am CDT
Clear
Clear
 Wind from E
Wind: E 6 mph , 9 km/h
Temperature: 75°F , 24°C
Dew Point: 73°F , 23°C
Humidity: 94%
Barometer: 29.84 inHg , 1010.5 hPa
Clouds: Clear
Visibility: 10 miles , 16 km
2019/07/21 08:55 KCNK 210855Z AUTO 10005KT 10SM CLR 24/23 A2984 RMK AO2 SLP083 T02440228 58006
 
KOMA - Omaha/Eppley, Nebraska, USA
Distance from station: NE 82mi, 133km
Updated: Sun, 21-Jul-2019 4:30am CDT
Thunderstorm, Overcast
Thunderstorm, Overcast
 Wind from ENE
Wind: ENE 7 mph , 11 km/h
Temperature: 72°F , 22°C
Dew Point: 64°F , 18°C
Humidity: 78%
Barometer: 29.93 inHg , 1013.5 hPa
Summary: Thunderstorm
Clouds: Overcast
Visibility: 10 miles , 16 km
Cloud details: Few Clouds 1000 ft
Mostly Cloudy 1500 ft
Overcast 5500 ft
2019/07/21 09:30 KOMA 210930Z 07006KT 10SM TS FEW010 BKN015 OVC055CB 22/18 A2993 RMK AO2 LTG DSNT S-W OCNL LTG S-SW TS S-SW MOV SE T02170183
KBVN - Albion Muni, Nebraska, USA
Distance from station: NNW 86mi, 138km
Updated: Sun, 21-Jul-2019 4:35am CDT
Nearby thunderstorm, Overcast
Nearby thunderstorm, Overcast
 Wind from ENE
Wind: ENE 7 mph , 11 km/h, Gust: 17 mph , 28 km/h
Temperature: 68°F , 20°C
Dew Point: 63°F , 17°C
Humidity: 83%
Barometer: 29.97 inHg , 1014.9 hPa
Summary: Nearby Thunderstorm
Clouds: Overcast
Visibility: 10 miles , 16 km
Cloud details: Overcast 4100 ft
2019/07/21 09:35 KBVN 210935Z AUTO 07006G15KT 10SM VCTS OVC041 20/17 A2997 RMK AO2 LTG DSNT S THRU W T01970172
 
KCBF - Council Bluffs, Iowa, USA
Distance from station: ENE 87mi, 139km
Updated: Sun, 21-Jul-2019 4:35am CDT
Overcast
Overcast
 Wind from NE
Wind: NE 7 mph , 11 km/h
Temperature: 68°F , 20°C
Dew Point: 68°F , 20°C
Humidity: 100%
Barometer: 29.93 inHg , 1013.5 hPa
Clouds: Overcast
Visibility: 10 miles , 16 km
Cloud details: Mostly Cloudy 1200 ft
Overcast 5000 ft
2019/07/21 09:35 KCBF 210935Z AUTO 05006KT 10SM BKN012 OVC050 20/20 A2993 RMK AO2
KOFK - Norfolk, Nebraska, USA
Distance from station: N 92mi, 148km
Updated: Sun, 21-Jul-2019 4:25am CDT
Overcast
Overcast
 Wind from ENE
Wind: ENE 10 mph , 17 km/h, Gust: 21 mph , 33 km/h
Temperature: 66°F , 19°C
Dew Point: 61°F , 16°C
Humidity: 83%
Barometer: 29.97 inHg , 1014.9 hPa
Clouds: Overcast
Visibility: 10 miles , 16 km
Cloud details: Mostly Cloudy 1300 ft
Overcast 5000 ft
2019/07/21 09:25 KOFK 210925Z AUTO 07009G18KT 10SM BKN013 OVC050 19/16 A2997 RMK AO2 T01890161

Metar display script from Saratoga-Weather.org